createdAt,value
2022-08-26T00:00:21.181Z,100032.59
2022-08-26T00:01:29.746Z,99970.61
2022-08-26T00:02:31.968Z,100023.20
2022-08-26T00:03:36.627Z,100028.05
2022-08-26T00:04:41.396Z,100035.62
2022-08-26T00:05:47.314Z,100035.62
2022-08-26T00:06:51.557Z,100019.85
2022-08-26T00:07:57.157Z,100025.77
2022-08-26T00:09:01.302Z,100022.42
2022-08-26T00:10:07.662Z,100017.38
2022-08-26T00:11:11.867Z,100022.02
2022-08-26T00:12:16.071Z,100011.67
2022-08-26T00:13:21.712Z,100021.56
2022-08-26T00:14:30.804Z,100023.46
2022-08-26T00:15:31.685Z,100015.73
2022-08-26T00:16:40.848Z,100021.56
2022-08-26T00:17:44.221Z,100020.78
2022-08-26T00:18:48.326Z,100020.78
2022-08-26T00:19:53.386Z,100011.14
2022-08-26T00:20:58.139Z,100011.14
2022-08-26T00:22:02.133Z,100013.66
2022-08-26T00:23:08.945Z,100004.02
2022-08-26T00:24:13.222Z,100013.25
2022-08-26T00:25:19.406Z,100013.25
2022-08-26T00:26:24.066Z,100011.14
2022-08-26T00:27:31.294Z,100020.87
2022-08-26T00:28:37.167Z,100010.39
2022-08-26T00:29:41.267Z,100011.22
2022-08-26T00:30:46.712Z,100008.70
2022-08-26T00:31:51.521Z,100008.70
2022-08-26T00:32:55.935Z,100008.95
2022-08-26T00:34:00.082Z,100012.51
2022-08-26T00:35:05.896Z,100012.51
2022-08-26T00:36:12.871Z,100011.06
2022-08-26T00:37:17.060Z,100011.06
2022-08-26T00:38:21.116Z,100009.83
2022-08-26T00:39:27.107Z,100007.95
2022-08-26T00:40:35.282Z,100001.88
2022-08-26T00:41:41.619Z,100011.35
2022-08-26T00:42:46.142Z,100011.97
2022-08-26T00:43:52.113Z,100011.35
2022-08-26T00:44:57.121Z,100011.35
2022-08-26T00:46:22.561Z,100008.08
2022-08-26T00:47:35.267Z,100002.16
2022-08-26T00:48:44.327Z,100005.80
2022-08-26T00:49:49.726Z,99996.38
2022-08-26T00:51:02.617Z,99996.38
2022-08-26T00:52:12.082Z,100001.00
2022-08-26T00:53:17.148Z,100003.07
2022-08-26T00:54:24.367Z,99994.72
2022-08-26T00:55:39.041Z,99994.72
2022-08-26T00:56:55.510Z,99996.16
2022-08-26T00:58:02.209Z,99996.16
2022-08-26T00:59:10.305Z,99998.48
2022-08-26T01:00:18.877Z,99998.48
2022-08-26T01:01:24.600Z,99998.72
2022-08-26T01:02:32.047Z,99991.36
2022-08-26T01:03:39.972Z,99995.99
2022-08-26T01:04:44.601Z,99990.08
2022-08-26T01:05:50.215Z,99988.63
2022-08-26T01:06:56.397Z,99990.12
2022-08-26T01:08:00.414Z,99990.12
2022-08-26T01:09:11.993Z,99988.92
2022-08-26T01:10:18.708Z,99988.92
2022-08-26T01:11:23.394Z,99988.92
2022-08-26T01:12:30.526Z,99993.97
2022-08-26T01:13:36.897Z,99986.64
2022-08-26T01:14:41.300Z,99986.47
2022-08-26T01:15:49.817Z,99989.20
2022-08-26T01:16:55.974Z,100002.84
2022-08-26T01:18:01.355Z,99994.03
2022-08-26T01:19:31.079Z,99989.02
2022-08-26T01:20:57.751Z,99994.48
2022-08-26T01:22:11.857Z,99994.48
2022-08-26T01:23:16.060Z,99986.33
2022-08-26T01:24:20.522Z,99986.33
2022-08-26T01:25:27.742Z,99985.30
2022-08-26T01:26:35.078Z,99985.95
2022-08-26T01:27:39.774Z,99985.95
2022-08-26T01:28:44.880Z,99988.68
2022-08-26T01:29:51.916Z,99988.47
2022-08-26T01:30:59.837Z,99981.56
2022-08-26T01:32:09.016Z,99981.98
2022-08-26T01:33:16.004Z,99991.20
2022-08-26T01:34:31.732Z,99985.75
2022-08-26T01:35:36.453Z,99984.53
2022-08-26T01:36:41.654Z,99984.53
2022-08-26T01:37:48.342Z,99986.02
2022-08-26T01:38:52.922Z,99983.29
2022-08-26T01:39:58.951Z,99985.57
2022-08-26T01:41:03.751Z,99985.57
2022-08-26T01:42:12.448Z,99991.27
2022-08-26T01:43:19.608Z,99978.07
2022-08-26T01:44:28.127Z,99986.46
2022-08-26T01:45:35.237Z,100002.65
2022-08-26T01:46:39.559Z,100002.65
2022-08-26T01:47:43.740Z,99982.10
2022-08-26T01:48:54.421Z,99982.10
2022-08-26T01:50:02.929Z,99972.47
2022-08-26T01:51:09.707Z,99972.47
2022-08-26T01:52:16.647Z,99974.58
2022-08-26T01:53:23.741Z,99975.02
2022-08-26T01:54:27.880Z,99978.81
2022-08-26T01:55:34.046Z,99979.88
2022-08-26T01:56:38.835Z,99981.75
2022-08-26T01:57:48.175Z,99981.75
2022-08-26T01:58:58.013Z,99977.54
2022-08-26T02:00:04.572Z,99977.98
2022-08-26T02:01:09.642Z,99973.36
2022-08-26T02:02:15.611Z,99973.36
2022-08-26T02:03:21.138Z,99978.42
2022-08-26T02:04:39.930Z,99983.44
2022-08-26T02:05:46.652Z,99977.56
2022-08-26T02:06:53.665Z,99979.46
2022-08-26T02:07:58.481Z,99979.28
2022-08-26T02:09:04.641Z,99978.45
2022-08-26T02:10:13.274Z,99976.80
2022-08-26T02:11:18.432Z,99977.23
2022-08-26T02:12:23.406Z,99973.44
2022-08-26T02:13:29.963Z,99973.44
2022-08-26T02:14:43.867Z,99967.98
2022-08-26T02:15:45.322Z,99976.38
2022-08-26T02:16:52.309Z,99976.38
2022-08-26T02:17:58.037Z,99973.26
2022-08-26T02:19:03.996Z,99974.97
2022-08-26T02:20:13.339Z,99967.62
2022-08-26T02:21:18.174Z,99967.62
2022-08-26T02:22:24.713Z,99968.50
2022-08-26T02:23:28.907Z,99977.30
2022-08-26T02:24:53.648Z,99973.13
2022-08-26T02:26:09.457Z,99970.61
2022-08-26T02:27:17.399Z,99974.78
2022-08-26T02:28:20.509Z,99976.48
2022-08-26T02:29:27.513Z,99975.41
2022-08-26T02:30:34.830Z,99975.62
2022-08-26T02:31:39.719Z,99973.95
2022-08-26T02:32:43.877Z,99979.84
2022-08-26T02:33:47.978Z,99979.84
2022-08-26T02:34:52.517Z,99972.50
2022-08-26T02:35:56.870Z,99978.16
2022-08-26T02:37:03.322Z,99972.31
2022-08-26T02:38:10.196Z,99973.14
2022-08-26T02:39:19.536Z,99973.14
2022-08-26T02:40:24.318Z,99974.41
2022-08-26T02:41:28.806Z,99974.21
2022-08-26T02:42:32.852Z,99974.84
2022-08-26T02:43:37.326Z,99975.66
2022-08-26T02:44:41.371Z,99975.66
2022-08-26T02:45:45.443Z,99982.82
2022-08-26T02:46:49.625Z,99982.82
2022-08-26T02:47:54.674Z,99979.47
2022-08-26T02:49:00.475Z,99981.17
2022-08-26T02:50:06.291Z,99981.38
2022-08-26T02:51:10.356Z,99982.44
2022-08-26T02:52:14.657Z,99982.44
2022-08-26T02:53:23.171Z,99986.23
2022-08-26T02:54:24.527Z,99986.23
2022-08-26T02:55:28.710Z,99977.20
2022-08-26T02:56:37.617Z,99977.20
2022-08-26T02:57:41.684Z,99981.22
2022-08-26T02:58:46.010Z,99981.22
2022-08-26T02:59:50.176Z,99987.94
2022-08-26T03:00:54.759Z,99987.94
2022-08-26T03:01:58.896Z,99990.00
2022-08-26T03:03:04.437Z,99984.55
2022-08-26T03:04:11.765Z,99988.11
2022-08-26T03:05:16.789Z,99990.83
2022-08-26T03:06:21.864Z,99996.72
2022-08-26T03:07:26.265Z,99996.28
2022-08-26T03:08:30.307Z,99996.28
2022-08-26T03:09:34.436Z,99997.11
2022-08-26T03:10:39.974Z,99993.16
2022-08-26T03:11:43.962Z,99995.65
2022-08-26T03:12:48.843Z,100003.19
2022-08-26T03:13:53.043Z,99995.88
2022-08-26T03:14:57.594Z,99995.02
2022-08-26T03:16:03.118Z,99995.02
2022-08-26T03:17:07.221Z,100002.55
2022-08-26T03:18:12.947Z,100001.73
2022-08-26T03:19:18.992Z,100001.73
2022-08-26T03:20:23.742Z,100003.22
2022-08-26T03:21:27.988Z,100017.47
2022-08-26T03:22:33.428Z,100017.47
2022-08-26T03:23:38.442Z,100010.95
2022-08-26T03:24:45.984Z,100013.48
2022-08-26T03:25:52.845Z,100013.48
2022-08-26T03:26:57.440Z,100010.52
2022-08-26T03:28:01.409Z,100004.62
2022-08-26T03:29:07.021Z,100010.47
2022-08-26T03:30:13.015Z,100012.55
2022-08-26T03:31:18.726Z,100008.77
2022-08-26T03:32:24.367Z,100002.67
2022-08-26T03:33:30.154Z,100015.03
2022-08-26T03:34:35.514Z,100015.03
2022-08-26T03:35:42.273Z,100009.14
2022-08-26T03:36:46.424Z,100009.14
2022-08-26T03:37:50.399Z,100005.77
2022-08-26T03:38:54.369Z,100011.41
2022-08-26T03:39:58.443Z,100011.41
2022-08-26T03:41:02.802Z,100002.34
2022-08-26T03:42:07.087Z,100009.87
2022-08-26T03:43:12.873Z,100005.02
2022-08-26T03:44:17.399Z,100009.44
2022-08-26T03:46:58.772Z,100006.89
2022-08-26T03:47:59.889Z,100006.89
2022-08-26T03:49:05.699Z,100010.20
2022-08-26T03:50:12.524Z,100010.20
2022-08-26T03:51:19.091Z,100007.07
2022-08-26T03:52:23.349Z,100011.81
2022-08-26T03:53:27.585Z,100011.81
2022-08-26T03:54:31.977Z,100016.59
2022-08-26T03:55:36.010Z,100009.34
2022-08-26T03:56:40.526Z,100009.23
2022-08-26T03:57:44.716Z,100009.23
2022-08-26T03:58:51.301Z,100001.55
2022-08-26T03:59:55.267Z,100008.81
2022-08-26T04:01:00.396Z,100008.81
2022-08-26T04:02:04.629Z,100007.48
2022-08-26T04:03:15.844Z,100009.23
2022-08-26T04:04:17.792Z,100009.23
2022-08-26T04:05:23.786Z,100011.34
2022-08-26T04:06:31.233Z,100003.01
2022-08-26T04:07:36.528Z,100003.01
2022-08-26T04:08:42.774Z,99996.55
2022-08-26T04:09:46.526Z,99996.55
2022-08-26T04:10:51.058Z,100003.84
2022-08-26T04:11:56.784Z,100007.13
2022-08-26T04:13:01.140Z,100006.91
2022-08-26T04:14:08.485Z,100006.91
2022-08-26T04:15:15.511Z,100003.25
2022-08-26T04:16:20.893Z,99996.92
2022-08-26T04:17:26.735Z,99997.64
2022-08-26T04:18:36.923Z,100000.13
2022-08-26T04:19:36.474Z,100002.39
2022-08-26T04:20:40.630Z,99997.88
2022-08-26T04:21:46.748Z,100002.30
2022-08-26T04:22:50.806Z,99987.42
2022-08-26T04:23:56.571Z,99997.66
2022-08-26T04:25:01.212Z,99992.41
2022-08-26T04:26:07.413Z,99992.41
2022-08-26T04:27:13.293Z,100001.17
2022-08-26T04:28:19.139Z,100004.26
2022-08-26T04:29:26.330Z,99994.26
2022-08-26T04:30:30.510Z,99994.26
2022-08-26T04:31:37.734Z,99999.52
2022-08-26T04:32:42.427Z,100006.42
2022-08-26T04:33:49.739Z,99997.00
2022-08-26T04:34:53.987Z,99998.47
2022-08-26T04:36:05.572Z,100000.17
2022-08-26T04:37:10.656Z,99995.76
2022-08-26T04:38:14.789Z,100001.47
2022-08-26T04:39:19.434Z,100001.47
2022-08-26T04:40:25.946Z,99997.38
2022-08-26T04:41:31.512Z,100004.96
2022-08-26T04:42:35.825Z,100004.96
2022-08-26T04:43:41.615Z,100003.20
2022-08-26T04:44:48.417Z,100004.03
2022-08-26T04:45:54.759Z,100004.03
2022-08-26T04:46:59.092Z,99993.14
2022-08-26T04:48:03.599Z,99997.77
2022-08-26T04:49:08.760Z,99997.77
2022-08-26T04:50:13.194Z,100006.36
2022-08-26T04:51:21.679Z,100006.36
2022-08-26T04:52:26.157Z,100001.60
2022-08-26T04:53:32.546Z,100000.68
2022-08-26T04:54:37.879Z,100007.11
2022-08-26T04:55:45.122Z,100005.59
2022-08-26T04:56:49.402Z,99996.08
2022-08-26T04:57:57.027Z,99997.56
2022-08-26T04:59:00.035Z,99997.56
2022-08-26T05:00:08.741Z,100001.16
2022-08-26T05:01:12.921Z,100001.16
2022-08-26T05:02:17.047Z,99995.72
2022-08-26T05:03:21.271Z,100002.03
2022-08-26T05:04:25.426Z,100001.00
2022-08-26T05:05:29.489Z,100001.00
2022-08-26T05:06:37.096Z,100004.94
2022-08-26T05:07:39.474Z,100001.23
2022-08-26T05:08:45.113Z,100001.70
2022-08-26T05:09:50.452Z,100005.81
2022-08-26T05:10:56.232Z,100006.58
2022-08-26T05:12:00.532Z,99969.80
2022-08-26T05:13:04.667Z,100013.22
2022-08-26T05:14:12.398Z,100013.22
2022-08-26T05:15:16.179Z,100011.97
2022-08-26T05:16:20.979Z,100011.97
2022-08-26T05:17:25.164Z,100011.14
2022-08-26T05:18:29.224Z,100001.70
2022-08-26T05:19:33.277Z,100004.48
2022-08-26T05:20:46.347Z,100004.48
2022-08-26T05:21:51.152Z,100005.00
2022-08-26T05:22:55.214Z,100004.81
2022-08-26T05:23:59.447Z,100011.50
2022-08-26T05:25:03.639Z,100008.86
2022-08-26T05:26:09.255Z,100008.86
2022-08-26T05:27:14.356Z,100008.56
2022-08-26T05:28:20.685Z,100005.94
2022-08-26T05:29:25.195Z,100005.94
2022-08-26T05:30:30.803Z,100004.53
2022-08-26T05:31:38.289Z,100010.33
2022-08-26T05:32:42.437Z,100010.33
2022-08-26T05:33:46.645Z,100010.63
2022-08-26T05:34:56.768Z,100012.11
2022-08-26T05:36:05.345Z,100012.11
2022-08-26T05:37:09.301Z,100012.73
2022-08-26T05:38:16.284Z,100012.80
2022-08-26T05:39:22.458Z,100011.82
2022-08-26T05:40:31.355Z,100017.05
2022-08-26T05:41:38.796Z,100021.20
2022-08-26T05:42:43.395Z,100021.20
2022-08-26T05:43:47.522Z,100020.63
2022-08-26T05:44:56.108Z,100020.63
2022-08-26T05:46:06.540Z,100015.45
2022-08-26T05:47:10.689Z,100017.80
2022-08-26T05:48:18.834Z,100017.80
2022-08-26T05:49:26.436Z,100019.27
2022-08-26T05:50:30.681Z,100015.47
2022-08-26T05:51:35.284Z,100012.11
2022-08-26T05:52:42.873Z,100012.11
2022-08-26T05:53:54.350Z,100012.11
2022-08-26T05:54:51.184Z,100016.55
2022-08-26T05:55:56.034Z,100008.31
2022-08-26T05:57:00.623Z,100013.30
2022-08-26T05:58:06.234Z,99607.30
2022-08-26T05:59:17.313Z,99607.30
2022-08-26T06:00:24.349Z,100023.46
2022-08-26T06:01:29.910Z,100028.16
2022-08-26T06:02:33.981Z,100028.16
2022-08-26T06:03:40.224Z,100024.78
2022-08-26T06:04:44.520Z,100026.11
2022-08-26T06:05:48.583Z,100026.11
2022-08-26T06:06:54.931Z,100028.78
2022-08-26T06:08:00.569Z,100025.20
2022-08-26T06:09:09.324Z,100025.20
2022-08-26T06:10:31.605Z,100032.70
2022-08-26T06:11:23.535Z,100022.24
2022-08-26T06:12:28.552Z,100020.41
2022-08-26T06:13:34.001Z,100020.41
2022-08-26T06:14:39.247Z,100019.87
2022-08-26T06:15:46.120Z,100017.98
2022-08-26T06:16:50.225Z,100023.20
2022-08-26T06:17:54.390Z,100018.23
2022-08-26T06:18:58.408Z,100018.23
2022-08-26T06:20:02.502Z,100018.55
2022-08-26T06:21:26.903Z,100015.55
2022-08-26T06:22:31.009Z,100009.78
2022-08-26T06:23:35.761Z,100008.38
2022-08-26T06:24:54.958Z,100005.66
2022-08-26T06:25:45.694Z,100005.69
2022-08-26T06:26:53.733Z,100005.69
2022-08-26T06:27:59.145Z,100013.16
2022-08-26T06:29:05.754Z,100014.33
2022-08-26T06:30:10.499Z,100014.89
2022-08-26T06:31:16.493Z,100014.34
2022-08-26T06:32:20.566Z,100025.16
2022-08-26T06:33:25.468Z,100020.47
2022-08-26T06:34:31.045Z,99992.28
2022-08-26T06:35:42.597Z,99992.28
2022-08-26T06:36:47.646Z,100013.67
2022-08-26T06:37:51.759Z,100013.67
2022-08-26T06:38:58.741Z,100018.11
2022-08-26T06:40:03.005Z,100027.25
2022-08-26T06:41:14.386Z,100027.25
2022-08-26T06:42:16.480Z,100039.69
2022-08-26T06:43:23.636Z,100036.93
2022-08-26T06:44:28.166Z,100037.78
2022-08-26T06:45:32.216Z,100044.13
2022-08-26T06:46:36.610Z,100030.85
2022-08-26T06:47:40.784Z,100030.85
2022-08-26T06:48:47.806Z,100030.85
2022-08-26T06:49:51.935Z,100030.85
2022-08-26T06:51:14.094Z,100027.83
2022-08-26T06:52:24.390Z,100017.63
2022-08-26T06:53:25.384Z,100005.51
2022-08-26T06:54:29.845Z,100005.51
2022-08-26T06:55:34.274Z,100007.72
2022-08-26T06:56:43.805Z,100009.94
2022-08-26T06:57:48.043Z,100006.63
2022-08-26T06:58:54.561Z,100006.63
2022-08-26T07:00:00.335Z,100003.56
2022-08-26T07:01:11.287Z,99998.86
2022-08-26T07:02:13.476Z,99999.98
2022-08-26T07:03:17.991Z,100007.73
2022-08-26T07:04:27.964Z,100007.17
2022-08-26T07:05:34.372Z,100007.17
2022-08-26T07:06:41.330Z,100010.75
2022-08-26T07:07:48.069Z,100003.28
2022-08-26T07:08:54.319Z,100006.31
2022-08-26T07:09:58.305Z,100012.14
2022-08-26T07:11:09.632Z,100012.14
2022-08-26T07:12:13.755Z,100003.83
2022-08-26T07:13:17.896Z,100003.83
2022-08-26T07:14:23.795Z,100005.72
2022-08-26T07:15:31.340Z,100015.13
2022-08-26T07:16:34.198Z,100015.13
2022-08-26T07:17:39.846Z,100008.21
2022-08-26T07:18:45.754Z,100008.21
2022-08-26T07:19:50.004Z,100006.77
2022-08-26T07:20:54.159Z,100006.77
2022-08-26T07:21:59.810Z,100004.28
2022-08-26T07:23:03.932Z,100002.37
2022-08-26T07:24:11.049Z,100002.37
2022-08-26T07:25:15.428Z,100000.69
2022-08-26T07:26:23.997Z,100002.61
2022-08-26T07:27:29.078Z,100002.61
2022-08-26T07:28:33.316Z,99989.34
2022-08-26T07:29:38.610Z,99989.34
2022-08-26T07:30:42.821Z,99991.58
2022-08-26T07:31:47.010Z,99994.88
2022-08-26T07:32:57.998Z,99994.88
2022-08-26T07:34:01.271Z,99993.23
2022-08-26T07:35:09.142Z,99985.48
2022-08-26T07:36:15.765Z,99986.58
2022-08-26T07:37:20.518Z,99989.08
2022-08-26T07:38:24.498Z,99997.92
2022-08-26T07:39:31.670Z,99998.48
2022-08-26T07:40:37.159Z,99998.48
2022-08-26T07:41:42.517Z,100010.95
2022-08-26T07:42:49.748Z,99990.47
2022-08-26T07:43:54.520Z,99990.47
2022-08-26T07:45:01.181Z,99985.50
2022-08-26T07:46:09.233Z,99986.33
2022-08-26T07:47:25.096Z,99983.06
2022-08-26T07:48:22.095Z,99984.69
2022-08-26T07:49:27.063Z,99986.31
2022-08-26T07:50:49.483Z,99986.31
2022-08-26T07:51:39.015Z,99973.30
2022-08-26T07:52:45.899Z,99973.03
2022-08-26T07:53:52.844Z,99973.03
2022-08-26T07:55:00.202Z,99976.05
2022-08-26T07:56:04.592Z,99977.12
2022-08-26T07:57:09.385Z,99974.35
2022-08-26T07:58:14.295Z,99978.24
2022-08-26T07:59:19.618Z,99986.02
2022-08-26T08:00:26.086Z,99968.31
2022-08-26T08:01:30.705Z,99962.20
2022-08-26T08:02:35.393Z,99963.87
2022-08-26T08:03:39.666Z,99972.17
2022-08-26T08:04:43.692Z,99964.42
2022-08-26T08:05:48.353Z,99842.16
2022-08-26T08:06:56.754Z,99969.41
2022-08-26T08:08:27.019Z,99978.55
2022-08-26T08:09:09.159Z,99978.55
2022-08-26T08:10:17.607Z,99969.98
2022-08-26T08:11:23.685Z,99966.12
2022-08-26T08:12:27.911Z,99966.06
2022-08-26T08:13:31.920Z,99966.06
2022-08-26T08:14:36.038Z,99966.59
2022-08-26T08:15:42.822Z,99964.91
2022-08-26T08:16:48.481Z,99971.53
2022-08-26T08:17:56.570Z,99971.53
2022-08-26T08:19:00.658Z,99969.11
2022-08-26T08:20:05.041Z,99992.12
2022-08-26T08:21:22.058Z,99976.61
2022-08-26T08:22:44.255Z,99976.61
2022-08-26T08:23:28.441Z,99974.92
2022-08-26T08:24:33.872Z,99961.09
2022-08-26T08:25:38.740Z,99963.03
2022-08-26T08:26:42.977Z,99963.03
2022-08-26T08:27:47.140Z,99964.95
2022-08-26T08:28:53.396Z,99964.95
2022-08-26T08:29:57.523Z,99957.77
2022-08-26T08:31:03.507Z,99966.12
2022-08-26T08:32:11.530Z,99951.69
2022-08-26T08:33:13.573Z,99952.23
2022-08-26T08:34:18.076Z,99948.36
2022-08-26T08:35:23.869Z,99948.36
2022-08-26T08:36:32.200Z,99946.42
2022-08-26T08:37:34.786Z,99948.86
2022-08-26T08:38:38.725Z,99952.70
2022-08-26T08:39:44.537Z,99956.07
2022-08-26T08:40:51.718Z,99956.07
2022-08-26T08:42:10.553Z,99957.72
2022-08-26T08:43:21.862Z,99957.74
2022-08-26T08:45:47.158Z,99948.86
2022-08-26T08:46:55.616Z,99963.34
2022-08-26T08:48:13.150Z,99939.48
2022-08-26T08:49:24.308Z,99939.48
2022-08-26T08:50:36.798Z,99959.39
2022-08-26T08:51:46.344Z,99959.39
2022-08-26T08:53:17.358Z,99934.50
2022-08-26T08:54:01.525Z,99934.50
2022-08-26T08:55:10.331Z,99937.84
2022-08-26T08:56:33.232Z,99937.79
2022-08-26T08:57:42.994Z,99935.00
2022-08-26T08:59:06.870Z,99941.63
2022-08-26T09:00:17.102Z,99947.63
2022-08-26T09:01:43.335Z,99942.09
2022-08-26T09:02:52.957Z,99956.52
2022-08-26T09:04:05.677Z,99956.52
2022-08-26T09:05:27.982Z,99953.83
2022-08-26T09:06:34.253Z,99932.53
2022-08-26T09:07:47.204Z,99930.31
2022-08-26T09:08:52.283Z,99790.92
2022-08-26T09:10:05.209Z,99790.92
2022-08-26T09:11:09.263Z,99951.55
2022-08-26T09:12:29.642Z,99929.19
2022-08-26T09:13:31.723Z,99963.28
2022-08-26T09:14:36.604Z,99963.28
2022-08-26T09:15:58.725Z,99934.47
2022-08-26T09:17:11.837Z,99939.16
2022-08-26T09:18:35.321Z,99939.16
2022-08-26T09:19:42.441Z,99922.22
2022-08-26T09:21:07.826Z,99929.70
2022-08-26T09:22:16.103Z,99929.70
2022-08-26T09:23:20.128Z,99934.91
2022-08-26T09:24:28.593Z,99930.20
2022-08-26T09:25:32.170Z,99930.20
2022-08-26T09:26:43.876Z,99923.26
2022-08-26T09:27:50.776Z,99926.00
2022-08-26T09:29:03.808Z,99934.27
2022-08-26T09:30:11.362Z,99921.31
2022-08-26T09:31:27.869Z,99921.31
2022-08-26T09:32:31.955Z,99934.88
2022-08-26T09:33:39.376Z,99932.66
2022-08-26T09:34:54.798Z,99925.75
2022-08-26T09:36:25.366Z,99925.75
2022-08-26T09:38:53.159Z,99916.13
2022-08-26T09:40:02.222Z,99922.83
2022-08-26T09:41:12.164Z,99914.22
2022-08-26T09:42:25.550Z,99918.11
2022-08-26T09:43:30.007Z,99918.11
2022-08-26T09:44:36.597Z,99918.08
2022-08-26T09:45:50.237Z,99916.69
2022-08-26T09:47:00.339Z,99897.30
2022-08-26T09:48:08.469Z,99897.30
2022-08-26T09:49:30.666Z,99915.77
2022-08-26T09:50:56.868Z,99911.30
2022-08-26T09:52:06.795Z,99911.30
2022-08-26T09:53:17.774Z,99919.88
2022-08-26T09:54:30.432Z,99928.73
2022-08-26T09:55:36.383Z,99941.48
2022-08-26T09:56:41.133Z,99927.18
2022-08-26T09:57:48.517Z,99934.67
2022-08-26T09:58:53.356Z,99919.48
2022-08-26T10:00:00.310Z,99919.48
2022-08-26T10:01:10.061Z,99919.14
2022-08-26T10:02:35.569Z,99915.86
2022-08-26T10:03:40.691Z,99920.61
2022-08-26T10:04:53.972Z,99930.01
2022-08-26T10:06:03.060Z,99915.86
2022-08-26T10:07:07.836Z,99915.86
2022-08-26T10:08:32.845Z,99919.70
2022-08-26T10:09:39.812Z,99936.61
2022-08-26T10:10:46.637Z,99936.61
2022-08-26T10:11:58.226Z,99932.77
2022-08-26T10:13:09.829Z,99918.36
2022-08-26T10:14:34.829Z,99931.70
2022-08-26T10:16:01.382Z,99926.69
2022-08-26T10:17:08.933Z,99926.69
2022-08-26T10:18:18.638Z,99929.73
2022-08-26T10:19:25.734Z,99915.59
2022-08-26T10:20:34.541Z,99924.47
2022-08-26T10:21:52.245Z,99923.92
2022-08-26T10:23:08.318Z,99923.92
2022-08-26T10:24:15.094Z,99925.27
2022-08-26T10:25:23.126Z,99918.94
2022-08-26T10:26:44.725Z,99914.77
2022-08-26T10:28:03.683Z,99911.42
2022-08-26T10:29:22.450Z,99915.28
2022-08-26T10:30:39.377Z,99917.26
2022-08-26T10:32:03.717Z,99915.28
2022-08-26T10:33:10.675Z,99921.12
2022-08-26T10:34:16.459Z,99917.23
2022-08-26T10:35:21.045Z,99914.46
2022-08-26T10:36:36.534Z,99922.22
2022-08-26T10:37:41.368Z,99923.86
2022-08-26T10:38:47.220Z,99908.34
2022-08-26T10:39:58.784Z,99920.85
2022-08-26T10:41:11.099Z,99920.85
2022-08-26T10:42:20.272Z,99910.56
2022-08-26T10:43:35.185Z,99910.56
2022-08-26T10:44:43.720Z,99911.63
2022-08-26T10:45:53.204Z,99913.85
2022-08-26T10:47:03.294Z,99914.46
2022-08-26T10:48:16.003Z,99914.46
2022-08-26T10:49:20.022Z,99908.59
2022-08-26T10:50:28.693Z,99908.59
2022-08-26T10:51:35.676Z,99894.95
2022-08-26T10:52:42.912Z,99910.95
2022-08-26T10:53:55.530Z,99920.67
2022-08-26T10:55:14.447Z,99934.82
2022-08-26T10:56:25.675Z,99920.70
2022-08-26T10:57:48.922Z,99920.70
2022-08-26T10:59:04.691Z,99915.47
2022-08-26T11:00:19.568Z,99917.69
2022-08-26T11:01:36.680Z,99917.69
2022-08-26T11:02:47.148Z,99912.73
2022-08-26T11:04:16.548Z,99910.50
2022-08-26T11:05:22.997Z,99910.50
2022-08-26T11:06:29.967Z,99912.15
2022-08-26T11:07:45.360Z,99913.79
2022-08-26T11:08:51.657Z,99912.70
2022-08-26T11:09:57.197Z,99915.22
2022-08-26T11:11:02.941Z,99915.22
2022-08-26T11:12:10.286Z,99910.75
2022-08-26T11:13:14.396Z,99910.75
2022-08-26T11:14:28.708Z,99902.41
2022-08-26T11:15:32.982Z,99918.78
2022-08-26T11:16:43.689Z,99918.78
2022-08-26T11:17:53.695Z,99907.36
2022-08-26T11:18:59.095Z,99905.95
2022-08-26T11:20:08.910Z,99907.36
2022-08-26T11:21:44.525Z,99907.36
2022-08-26T11:22:50.226Z,99909.69
2022-08-26T11:23:54.249Z,99910.98
2022-08-26T11:25:01.579Z,99907.39
2022-08-26T11:26:32.737Z,99909.95
2022-08-26T11:27:28.554Z,99942.16
2022-08-26T11:28:44.815Z,99921.64
2022-08-26T11:29:57.077Z,99921.64
2022-08-26T11:31:06.783Z,99920.55
2022-08-26T11:32:27.384Z,99913.94
2022-08-26T11:33:52.779Z,99913.94
2022-08-26T11:34:59.610Z,99921.73
2022-08-26T11:36:12.391Z,99915.09
2022-08-26T11:37:13.448Z,99915.09
2022-08-26T11:38:28.849Z,99918.73
2022-08-26T11:39:57.213Z,99938.39
2022-08-26T11:41:07.606Z,99938.39
2022-08-26T11:42:29.397Z,99918.13
2022-08-26T11:43:34.140Z,99908.70
2022-08-26T11:44:49.403Z,99895.96
2022-08-26T11:46:12.741Z,99902.05
2022-08-26T11:47:31.928Z,99906.19
2022-08-26T11:48:39.139Z,99918.33
2022-08-26T11:49:43.462Z,99918.33
2022-08-26T11:51:10.122Z,99914.95
2022-08-26T11:52:20.920Z,99902.16
2022-08-26T11:53:27.953Z,99904.31
2022-08-26T11:54:35.809Z,99901.54
2022-08-26T11:55:40.465Z,99901.54
2022-08-26T11:56:47.681Z,99902.02
2022-08-26T11:57:54.685Z,99904.24
2022-08-26T11:59:02.348Z,99903.77
2022-08-26T12:00:12.522Z,99903.77
2022-08-26T12:01:31.179Z,99915.40
2022-08-26T12:02:35.759Z,99895.70
2022-08-26T12:03:48.653Z,99938.66
2022-08-26T12:04:54.934Z,99938.66
2022-08-26T12:05:59.587Z,99921.52
2022-08-26T12:07:09.729Z,99923.20
2022-08-26T12:08:13.547Z,99923.20
2022-08-26T12:09:29.532Z,99912.97
2022-08-26T12:10:34.891Z,99527.28
2022-08-26T12:11:40.877Z,99901.23
2022-08-26T12:12:49.578Z,99922.58
2022-08-26T12:14:02.457Z,99892.92
2022-08-26T12:15:15.121Z,99892.92
2022-08-26T12:16:22.758Z,99907.91
2022-08-26T12:17:29.712Z,99904.83
2022-08-26T12:18:37.475Z,99904.59
2022-08-26T12:19:41.529Z,99904.59
2022-08-26T12:20:45.876Z,99931.47
2022-08-26T12:21:53.731Z,99931.47
2022-08-26T12:22:59.487Z,99897.69
2022-08-26T12:24:04.451Z,99901.00
2022-08-26T12:25:11.512Z,99897.69
2022-08-26T12:26:31.720Z,99899.66
2022-08-26T12:27:38.859Z,99899.66
2022-08-26T12:28:48.160Z,99906.85
2022-08-26T12:30:12.228Z,99917.69
2022-08-26T12:31:31.393Z,99892.31
2022-08-26T12:32:39.195Z,99910.53
2022-08-26T12:33:48.400Z,99910.53
2022-08-26T12:34:52.751Z,99921.67
2022-08-26T12:35:57.496Z,99907.83
2022-08-26T12:37:04.138Z,99907.83
2022-08-26T12:38:13.106Z,99893.70
2022-08-26T12:39:34.844Z,99893.09
2022-08-26T12:40:45.104Z,99893.09
2022-08-26T12:43:09.133Z,99776.74
2022-08-26T12:43:35.187Z,99776.74
2022-08-26T12:44:38.577Z,99893.70
2022-08-26T12:45:45.962Z,99897.91
2022-08-26T12:46:50.335Z,99897.91
2022-08-26T12:47:57.779Z,99899.03
2022-08-26T12:49:03.777Z,99890.48
2022-08-26T12:50:11.057Z,99901.30
2022-08-26T12:51:24.222Z,99895.20
2022-08-26T12:52:32.932Z,99893.80
2022-08-26T12:53:40.032Z,99893.25
2022-08-26T12:54:47.154Z,99886.94
2022-08-26T12:55:57.510Z,99881.40
2022-08-26T12:57:13.922Z,99890.80
2022-08-26T12:58:26.824Z,99891.39
2022-08-26T12:59:30.945Z,99891.39
2022-08-26T13:00:37.846Z,99893.03
2022-08-26T13:01:48.426Z,99881.38
2022-08-26T13:02:53.195Z,99881.38
2022-08-26T13:03:59.033Z,99881.93
2022-08-26T13:05:04.480Z,99881.93
2022-08-26T13:06:17.650Z,99887.16
2022-08-26T13:07:25.030Z,99887.16
2022-08-26T13:08:29.145Z,99886.31
2022-08-26T13:09:33.374Z,99880.75
2022-08-26T13:10:40.553Z,99891.00
2022-08-26T13:11:50.256Z,99889.66